sensor_id;sensor_type;location;lat;lon;timestamp;pressure;altitude;pressure_sealevel;temperature;humidity
27729;BME280;15126;42.186;24.340;2023-06-26T00:01:28;98828.56;;;24.26;71.39
27729;BME280;15126;42.186;24.340;2023-06-26T00:03:56;98821.53;;;24.27;71.29
27729;BME280;15126;42.186;24.340;2023-06-26T00:06:25;98822.16;;;24.20;71.72
27729;BME280;15126;42.186;24.340;2023-06-26T00:08:53;98825.94;;;24.28;71.36
27729;BME280;15126;42.186;24.340;2023-06-26T00:11:20;98824.16;;;24.25;71.04
27729;BME280;15126;42.186;24.340;2023-06-26T00:13:47;98803.50;;;24.19;70.81
27729;BME280;15126;42.186;24.340;2023-06-26T00:16:14;98821.63;;;24.21;71.69
27729;BME280;15126;42.186;24.340;2023-06-26T00:18:41;98813.66;;;24.14;71.06
27729;BME280;15126;42.186;24.340;2023-06-26T00:21:08;98827.00;;;24.25;71.53
27729;BME280;15126;42.186;24.340;2023-06-26T00:23:36;98823.94;;;24.23;71.56
27729;BME280;15126;42.186;24.340;2023-06-26T00:26:04;98830.94;;;24.22;71.60
27729;BME280;15126;42.186;24.340;2023-06-26T00:28:30;98826.56;;;24.21;72.43
27729;BME280;15126;42.186;24.340;2023-06-26T00:30:57;98818.78;;;24.21;71.98
27729;BME280;15126;42.186;24.340;2023-06-26T00:33:24;98827.16;;;24.33;71.82
27729;BME280;15126;42.186;24.340;2023-06-26T00:35:51;98824.09;;;24.31;71.77
27729;BME280;15126;42.186;24.340;2023-06-26T00:38:18;98826.41;;;24.32;71.37
27729;BME280;15126;42.186;24.340;2023-06-26T00:40:46;98828.78;;;24.28;70.90
27729;BME280;15126;42.186;24.340;2023-06-26T00:43:13;98827.31;;;24.21;71.60
27729;BME280;15126;42.186;24.340;2023-06-26T00:45:39;98823.94;;;24.23;71.94
27729;BME280;15126;42.186;24.340;2023-06-26T00:48:06;98826.06;;;24.17;71.51
27729;BME280;15126;42.186;24.340;2023-06-26T00:50:33;98825.34;;;24.11;71.76
27729;BME280;15126;42.186;24.340;2023-06-26T00:53:00;98832.47;;;23.99;72.30
27729;BME280;15126;42.186;24.340;2023-06-26T00:55:27;98818.81;;;23.92;72.49
27729;BME280;15126;42.186;24.340;2023-06-26T00:57:55;98823.69;;;23.97;72.56
27729;BME280;15126;42.186;24.340;2023-06-26T01:00:25;98822.75;;;23.89;72.74
27729;BME280;15126;42.186;24.340;2023-06-26T01:02:52;98808.63;;;23.78;72.74
27729;BME280;15126;42.186;24.340;2023-06-26T01:05:19;98822.06;;;23.77;73.19
27729;BME280;15126;42.186;24.340;2023-06-26T01:07:47;98827.28;;;23.73;73.39
27729;BME280;15126;42.186;24.340;2023-06-26T01:10:14;98822.13;;;23.72;73.47
27729;BME280;15126;42.186;24.340;2023-06-26T01:12:41;98826.75;;;23.75;73.35
27729;BME280;15126;42.186;24.340;2023-06-26T01:15:10;98819.47;;;23.79;73.06
27729;BME280;15126;42.186;24.340;2023-06-26T01:17:38;98815.31;;;23.80;73.35
27729;BME280;15126;42.186;24.340;2023-06-26T01:20:06;98820.28;;;23.74;73.47
27729;BME280;15126;42.186;24.340;2023-06-26T01:22:38;98816.44;;;23.72;73.21
27729;BME280;15126;42.186;24.340;2023-06-26T01:25:17;98822.59;;;23.76;73.36
27729;BME280;15126;42.186;24.340;2023-06-26T01:27:50;98812.81;;;23.71;73.50
27729;BME280;15126;42.186;24.340;2023-06-26T01:30:20;98823.19;;;23.68;73.53
27729;BME280;15126;42.186;24.340;2023-06-26T01:32:48;98821.13;;;23.69;73.72
27729;BME280;15126;42.186;24.340;2023-06-26T01:35:16;98820.84;;;23.73;73.71
27729;BME280;15126;42.186;24.340;2023-06-26T01:37:43;98808.63;;;23.78;73.67
27729;BME280;15126;42.186;24.340;2023-06-26T01:40:10;98799.47;;;23.85;72.86
27729;BME280;15126;42.186;24.340;2023-06-26T01:42:37;98805.75;;;23.78;72.95
27729;BME280;15126;42.186;24.340;2023-06-26T01:45:11;98793.44;;;23.69;72.73
27729;BME280;15126;42.186;24.340;2023-06-26T01:47:40;98811.94;;;23.82;72.81
27729;BME280;15126;42.186;24.340;2023-06-26T01:50:14;98804.88;;;23.88;72.45
27729;BME280;15126;42.186;24.340;2023-06-26T01:52:49;98818.34;;;23.88;72.89
27729;BME280;15126;42.186;24.340;2023-06-26T01:55:23;98810.56;;;23.88;72.87
27729;BME280;15126;42.186;24.340;2023-06-26T01:57:56;98808.72;;;23.91;72.96
27729;BME280;15126;42.186;24.340;2023-06-26T02:00:26;98796.63;;;23.85;73.06
27729;BME280;15126;42.186;24.340;2023-06-26T02:02:53;98805.03;;;23.96;73.04
27729;BME280;15126;42.186;24.340;2023-06-26T02:05:20;98801.47;;;23.90;73.17
27729;BME280;15126;42.186;24.340;2023-06-26T02:07:49;98806.81;;;23.99;72.69
27729;BME280;15126;42.186;24.340;2023-06-26T02:10:16;98798.16;;;23.86;72.91
27729;BME280;15126;42.186;24.340;2023-06-26T02:12:43;98790.19;;;23.79;73.35
27729;BME280;15126;42.186;24.340;2023-06-26T02:15:10;98804.88;;;23.88;73.38
27729;BME280;15126;42.186;24.340;2023-06-26T02:17:38;98808.00;;;23.85;73.40
27729;BME280;15126;42.186;24.340;2023-06-26T02:20:06;98797.28;;;23.72;73.79
27729;BME280;15126;42.186;24.340;2023-06-26T02:22:34;98810.09;;;23.84;73.70
27729;BME280;15126;42.186;24.340;2023-06-26T02:25:01;98799.75;;;23.81;73.85
27729;BME280;15126;42.186;24.340;2023-06-26T02:27:28;98807.78;;;23.83;74.15
27729;BME280;15126;42.186;24.340;2023-06-26T02:29:55;98805.66;;;23.89;73.84
27729;BME280;15126;42.186;24.340;2023-06-26T02:32:21;98798.84;;;23.92;74.12
27729;BME280;15126;42.186;24.340;2023-06-26T02:34:50;98764.63;;;23.73;73.46
27729;BME280;15126;42.186;24.340;2023-06-26T02:37:18;98785.78;;;23.83;73.98
27729;BME280;15126;42.186;24.340;2023-06-26T02:39:47;98797.03;;;23.94;74.01
27729;BME280;15126;42.186;24.340;2023-06-26T02:42:14;98798.34;;;23.93;73.70
27729;BME280;15126;42.186;24.340;2023-06-26T02:44:41;98792.09;;;23.95;73.81
27729;BME280;15126;42.186;24.340;2023-06-26T02:47:08;98794.72;;;23.93;73.45
27729;BME280;15126;42.186;24.340;2023-06-26T02:49:34;98808.97;;;23.93;74.17
27729;BME280;15126;42.186;24.340;2023-06-26T02:52:03;98799.19;;;23.88;74.00
27729;BME280;15126;42.186;24.340;2023-06-26T02:54:30;98794.25;;;23.89;74.12
27729;BME280;15126;42.186;24.340;2023-06-26T02:56:58;98795.13;;;23.78;74.81
27729;BME280;15126;42.186;24.340;2023-06-26T02:59:25;98795.91;;;23.79;74.40
27729;BME280;15126;42.186;24.340;2023-06-26T03:01:52;98788.19;;;23.74;74.60
27729;BME280;15126;42.186;24.340;2023-06-26T03:04:18;98782.72;;;23.76;74.01
27729;BME280;15126;42.186;24.340;2023-06-26T03:06:46;98799.75;;;23.81;74.65
27729;BME280;15126;42.186;24.340;2023-06-26T03:09:14;98800.53;;;23.82;74.70
27729;BME280;15126;42.186;24.340;2023-06-26T03:11:42;98797.41;;;23.85;74.30
27729;BME280;15126;42.186;24.340;2023-06-26T03:14:09;98810.84;;;23.85;74.33
27729;BME280;15126;42.186;24.340;2023-06-26T03:16:35;98812.22;;;23.78;74.55
27729;BME280;15126;42.186;24.340;2023-06-26T03:19:02;98808.84;;;23.80;74.21
27729;BME280;15126;42.186;24.340;2023-06-26T03:21:29;98809.72;;;23.69;74.50
27729;BME280;15126;42.186;24.340;2023-06-26T03:23:56;98802.47;;;23.68;74.65
27729;BME280;15126;42.186;24.340;2023-06-26T03:26:24;98812.28;;;23.73;74.66
27729;BME280;15126;42.186;24.340;2023-06-26T03:28:52;98811.47;;;23.78;74.15
27729;BME280;15126;42.186;24.340;2023-06-26T03:31:20;98815.25;;;23.86;73.63
27729;BME280;15126;42.186;24.340;2023-06-26T03:33:46;98818.16;;;23.80;74.68
27729;BME280;15126;42.186;24.340;2023-06-26T03:36:13;98819.63;;;23.87;73.81
27729;BME280;15126;42.186;24.340;2023-06-26T03:38:41;98804.69;;;23.81;73.56
27729;BME280;15126;42.186;24.340;2023-06-26T03:41:07;98811.28;;;23.94;73.74
27729;BME280;15126;42.186;24.340;2023-06-26T03:43:36;98798.56;;;23.95;73.25
27729;BME280;15126;42.186;24.340;2023-06-26T03:46:03;98823.38;;;24.00;73.27
27729;BME280;15126;42.186;24.340;2023-06-26T03:48:29;98804.03;;;23.93;73.29
27729;BME280;15126;42.186;24.340;2023-06-26T03:50:56;98819.44;;;24.09;72.87
27729;BME280;15126;42.186;24.340;2023-06-26T03:53:23;98817.28;;;24.15;72.67
27729;BME280;15126;42.186;24.340;2023-06-26T03:55:50;98820.72;;;24.08;73.39
27729;BME280;15126;42.186;24.340;2023-06-26T03:58:17;98788.41;;;24.00;72.87
27729;BME280;15126;42.186;24.340;2023-06-26T04:00:45;98811.81;;;24.17;72.39
27729;BME280;15126;42.186;24.340;2023-06-26T04:03:12;98810.03;;;24.14;73.11
27729;BME280;15126;42.186;24.340;2023-06-26T04:05:39;98809.03;;;24.11;72.92
27729;BME280;15126;42.186;24.340;2023-06-26T04:08:06;98819.34;;;24.14;72.70
27729;BME280;15126;42.186;24.340;2023-06-26T04:10:32;98816.00;;;24.16;71.53
27729;BME280;15126;42.186;24.340;2023-06-26T04:12:59;98819.84;;;24.18;71.78
27729;BME280;15126;42.186;24.340;2023-06-26T04:15:26;98815.28;;;24.10;71.86
27729;BME280;15126;42.186;24.340;2023-06-26T04:17:54;98820.59;;;24.19;71.82
27729;BME280;15126;42.186;24.340;2023-06-26T04:20:21;98820.47;;;24.06;72.38
27729;BME280;15126;42.186;24.340;2023-06-26T04:22:47;98817.88;;;24.08;72.47
27729;BME280;15126;42.186;24.340;2023-06-26T04:25:15;98821.91;;;24.18;72.17
27729;BME280;15126;42.186;24.340;2023-06-26T04:27:41;98817.75;;;24.19;72.22
27729;BME280;15126;42.186;24.340;2023-06-26T04:30:09;98820.84;;;24.21;72.78
27729;BME280;15126;42.186;24.340;2023-06-26T04:32:37;98821.78;;;24.29;72.43
27729;BME280;15126;42.186;24.340;2023-06-26T04:35:06;98817.59;;;24.30;72.21
27729;BME280;15126;42.186;24.340;2023-06-26T04:37:33;98816.88;;;24.30;71.02
27729;BME280;15126;42.186;24.340;2023-06-26T04:40:03;98821.00;;;24.28;71.22
27729;BME280;15126;42.186;24.340;2023-06-26T04:42:30;98822.47;;;24.35;71.93
27729;BME280;15126;42.186;24.340;2023-06-26T04:44:57;98822.72;;;24.37;70.97
27729;BME280;15126;42.186;24.340;2023-06-26T04:47:24;98829.44;;;24.40;71.02
27729;BME280;15126;42.186;24.340;2023-06-26T04:49:51;98798.13;;;24.34;71.02
27729;BME280;15126;42.186;24.340;2023-06-26T04:52:19;98829.28;;;24.51;70.77
27729;BME280;15126;42.186;24.340;2023-06-26T04:54:46;98827.50;;;24.66;69.76
27729;BME280;15126;42.186;24.340;2023-06-26T04:57:12;98826.75;;;24.66;70.45
27729;BME280;15126;42.186;24.340;2023-06-26T04:59:40;98821.19;;;24.73;70.49
27729;BME280;15126;42.186;24.340;2023-06-26T05:02:07;98773.94;;;24.41;70.27
27729;BME280;15126;42.186;24.340;2023-06-26T05:04:33;98833.78;;;24.83;68.65
27729;BME280;15126;42.186;24.340;2023-06-26T05:07:00;98831.16;;;24.85;68.45
27729;BME280;15126;42.186;24.340;2023-06-26T05:09:28;98838.66;;;24.89;68.08
27729;BME280;15126;42.186;24.340;2023-06-26T05:11:55;98833.25;;;24.85;69.21
27729;BME280;15126;42.186;24.340;2023-06-26T05:14:22;98841.72;;;24.91;69.71
27729;BME280;15126;42.186;24.340;2023-06-26T05:16:48;98846.34;;;24.94;70.00
27729;BME280;15126;42.186;24.340;2023-06-26T05:19:15;98844.19;;;25.00;69.31
27729;BME280;15126;42.186;24.340;2023-06-26T05:21:42;98846.72;;;25.03;68.61
27729;BME280;15126;42.186;24.340;2023-06-26T05:24:10;98846.88;;;25.11;67.65
27729;BME280;15126;42.186;24.340;2023-06-26T05:26:41;98833.22;;;25.04;68.45
27729;BME280;15126;42.186;24.340;2023-06-26T05:29:08;98850.66;;;25.19;69.17
27729;BME280;15126;42.186;24.340;2023-06-26T05:31:40;98844.94;;;25.19;68.19
27729;BME280;15126;42.186;24.340;2023-06-26T05:34:10;98841.66;;;25.28;67.33
27729;BME280;15126;42.186;24.340;2023-06-26T05:36:38;98851.13;;;25.36;67.65
27729;BME280;15126;42.186;24.340;2023-06-26T05:39:08;98860.19;;;25.40;67.35
27729;BME280;15126;42.186;24.340;2023-06-26T05:41:35;98854.91;;;25.44;67.81
27729;BME280;15126;42.186;24.340;2023-06-26T05:44:04;98848.38;;;25.49;67.16
27729;BME280;15126;42.186;24.340;2023-06-26T05:46:30;98862.59;;;25.68;67.44
27729;BME280;15126;42.186;24.340;2023-06-26T05:48:57;98856.22;;;25.75;66.05
27729;BME280;15126;42.186;24.340;2023-06-26T05:51:24;98863.94;;;25.80;66.42
27729;BME280;15126;42.186;24.340;2023-06-26T05:53:51;98865.81;;;25.90;67.17
27729;BME280;15126;42.186;24.340;2023-06-26T05:56:19;98864.63;;;25.99;65.91
27729;BME280;15126;42.186;24.340;2023-06-26T05:58:46;98866.28;;;26.08;65.62
27729;BME280;15126;42.186;24.340;2023-06-26T06:01:15;98860.72;;;26.15;65.76
27729;BME280;15126;42.186;24.340;2023-06-26T06:03:41;98858.09;;;26.30;66.51
27729;BME280;15126;42.186;24.340;2023-06-26T06:06:08;98866.31;;;26.60;65.84
27729;BME280;15126;42.186;24.340;2023-06-26T06:08:35;98852.19;;;26.75;62.47
27729;BME280;15126;42.186;24.340;2023-06-26T06:11:02;98853.69;;;27.02;64.69
27729;BME280;15126;42.186;24.340;2023-06-26T06:13:29;98842.44;;;27.04;62.94
27729;BME280;15126;42.186;24.340;2023-06-26T06:15:55;98838.97;;;26.98;61.50
27729;BME280;15126;42.186;24.340;2023-06-26T06:18:24;98843.28;;;27.12;61.75
27729;BME280;15126;42.186;24.340;2023-06-26T06:20:50;98848.44;;;27.27;63.16
27729;BME280;15126;42.186;24.340;2023-06-26T06:23:17;98836.25;;;27.34;60.93
27729;BME280;15126;42.186;24.340;2023-06-26T06:25:44;98838.06;;;27.58;60.03
27729;BME280;15126;42.186;24.340;2023-06-26T06:28:11;98829.28;;;27.84;61.35
27729;BME280;15126;42.186;24.340;2023-06-26T06:30:37;98823.47;;;27.97;60.34
27729;BME280;15126;42.186;24.340;2023-06-26T06:33:04;98829.41;;;28.27;59.94
27729;BME280;15126;42.186;24.340;2023-06-26T06:35:32;98825.09;;;28.42;55.13
27729;BME280;15126;42.186;24.340;2023-06-26T06:37:59;98820.56;;;28.54;53.82
27729;BME280;15126;42.186;24.340;2023-06-26T06:40:26;98820.56;;;28.54;53.10
27729;BME280;15126;42.186;24.340;2023-06-26T06:42:53;98823.03;;;28.50;51.89
27729;BME280;15126;42.186;24.340;2023-06-26T06:45:20;98822.63;;;28.81;53.78
27729;BME280;15126;42.186;24.340;2023-06-26T06:47:46;98825.00;;;29.06;56.44
27729;BME280;15126;42.186;24.340;2023-06-26T06:50:13;98826.75;;;29.16;54.91
27729;BME280;15126;42.186;24.340;2023-06-26T06:52:42;98829.25;;;29.12;49.74
27729;BME280;15126;42.186;24.340;2023-06-26T06:55:09;98829.56;;;28.93;51.12
27729;BME280;15126;42.186;24.340;2023-06-26T06:57:37;98841.44;;;28.98;51.00
27729;BME280;15126;42.186;24.340;2023-06-26T07:00:05;98836.09;;;28.94;49.80
27729;BME280;15126;42.186;24.340;2023-06-26T07:02:35;98836.63;;;28.85;49.16
27729;BME280;15126;42.186;24.340;2023-06-26T07:05:02;98838.91;;;28.86;50.08
27729;BME280;15126;42.186;24.340;2023-06-26T07:07:31;98836.66;;;28.57;51.23
27729;BME280;15126;42.186;24.340;2023-06-26T07:10:00;98837.56;;;28.44;51.00
27729;BME280;15126;42.186;24.340;2023-06-26T07:12:28;98840.84;;;28.20;50.91
27729;BME280;15126;42.186;24.340;2023-06-26T07:14:55;98836.06;;;28.15;54.97
27729;BME280;15126;42.186;24.340;2023-06-26T07:17:22;98828.41;;;28.17;55.04
27729;BME280;15126;42.186;24.340;2023-06-26T07:19:49;98835.16;;;28.27;54.25
27729;BME280;15126;42.186;24.340;2023-06-26T07:22:16;98840.09;;;28.19;52.17
27729;BME280;15126;42.186;24.340;2023-06-26T07:24:45;98820.81;;;27.99;51.78
27729;BME280;15126;42.186;24.340;2023-06-26T07:27:14;98844.75;;;27.81;53.25
27729;BME280;15126;42.186;24.340;2023-06-26T07:29:40;98833.22;;;27.73;54.63
27729;BME280;15126;42.186;24.340;2023-06-26T07:32:07;98837.56;;;27.67;53.82
27729;BME280;15126;42.186;24.340;2023-06-26T07:34:34;98830.50;;;27.68;54.45
27729;BME280;15126;42.186;24.340;2023-06-26T07:37:01;98844.44;;;27.92;58.22
27729;BME280;15126;42.186;24.340;2023-06-26T07:39:30;98836.47;;;27.98;57.76
27729;BME280;15126;42.186;24.340;2023-06-26T07:41:57;98837.31;;;28.34;55.69
27729;BME280;15126;42.186;24.340;2023-06-26T07:44:26;98844.72;;;28.58;54.28
27729;BME280;15126;42.186;24.340;2023-06-26T07:46:53;98835.06;;;28.76;50.58
27729;BME280;15126;42.186;24.340;2023-06-26T07:49:19;98840.47;;;28.95;53.92
27729;BME280;15126;42.186;24.340;2023-06-26T07:51:46;98830.34;;;28.94;51.33
27729;BME280;15126;42.186;24.340;2023-06-26T07:54:13;98834.38;;;29.06;52.54
27729;BME280;15126;42.186;24.340;2023-06-26T07:56:52;98840.16;;;29.14;51.10
27729;BME280;15126;42.186;24.340;2023-06-26T07:59:19;98828.53;;;29.27;53.83
27729;BME280;15126;42.186;24.340;2023-06-26T08:01:49;98851.72;;;29.44;53.65
27729;BME280;15126;42.186;24.340;2023-06-26T08:04:17;98841.72;;;29.22;49.76
27729;BME280;15126;42.186;24.340;2023-06-26T08:06:45;98850.22;;;29.58;50.95
27729;BME280;15126;42.186;24.340;2023-06-26T08:09:12;98856.56;;;29.64;48.28
27729;BME280;15126;42.186;24.340;2023-06-26T08:11:39;98857.16;;;29.85;50.04
27729;BME280;15126;42.186;24.340;2023-06-26T08:14:05;98843.75;;;30.03;48.33
27729;BME280;15126;42.186;24.340;2023-06-26T08:16:32;98849.44;;;30.26;49.79
27729;BME280;15126;42.186;24.340;2023-06-26T08:19:00;98851.53;;;30.48;47.92
27729;BME280;15126;42.186;24.340;2023-06-26T08:21:27;98843.09;;;30.50;47.70
27729;BME280;15126;42.186;24.340;2023-06-26T08:23:54;98853.81;;;30.64;46.93
27729;BME280;15126;42.186;24.340;2023-06-26T08:26:21;98822.16;;;30.49;46.71
27729;BME280;15126;42.186;24.340;2023-06-26T08:28:48;98839.78;;;30.61;46.98
27729;BME280;15126;42.186;24.340;2023-06-26T08:31:15;98850.06;;;30.87;48.64
27729;BME280;15126;42.186;24.340;2023-06-26T08:33:42;98845.50;;;30.68;45.87
27729;BME280;15126;42.186;24.340;2023-06-26T08:36:10;98847.94;;;30.95;46.82
27729;BME280;15126;42.186;24.340;2023-06-26T08:38:37;98846.53;;;31.11;46.62
27729;BME280;15126;42.186;24.340;2023-06-26T08:41:05;98851.00;;;31.29;46.10
27729;BME280;15126;42.186;24.340;2023-06-26T08:43:32;98845.31;;;31.21;44.31
27729;BME280;15126;42.186;24.340;2023-06-26T08:45:59;98846.78;;;31.30;46.42
27729;BME280;15126;42.186;24.340;2023-06-26T08:48:28;98845.53;;;31.48;43.71
27729;BME280;15126;42.186;24.340;2023-06-26T08:51:01;98839.94;;;31.50;44.72
27729;BME280;15126;42.186;24.340;2023-06-26T08:53:42;98837.84;;;31.43;44.10
27729;BME280;15126;42.186;24.340;2023-06-26T08:56:11;98829.72;;;31.57;44.12
27729;BME280;15126;42.186;24.340;2023-06-26T08:58:42;98831.72;;;31.47;43.52
27729;BME280;15126;42.186;24.340;2023-06-26T09:01:09;98835.97;;;31.38;45.98
27729;BME280;15126;42.186;24.340;2023-06-26T09:03:37;98824.06;;;31.34;44.36
27729;BME280;15126;42.186;24.340;2023-06-26T09:06:04;98819.97;;;31.52;47.08
27729;BME280;15126;42.186;24.340;2023-06-26T09:08:31;98825.34;;;31.48;44.61
27729;BME280;15126;42.186;24.340;2023-06-26T09:10:59;98810.38;;;31.42;47.78
27729;BME280;15126;42.186;24.340;2023-06-26T09:13:28;98822.91;;;31.37;43.82
27729;BME280;15126;42.186;24.340;2023-06-26T09:15:55;98823.34;;;31.26;45.22
27729;BME280;15126;42.186;24.340;2023-06-26T09:18:22;98811.53;;;31.47;49.02
27729;BME280;15126;42.186;24.340;2023-06-26T09:20:49;98816.38;;;31.69;45.72
27729;BME280;15126;42.186;24.340;2023-06-26T09:23:16;98813.72;;;31.63;44.31
27729;BME280;15126;42.186;24.340;2023-06-26T09:25:43;98804.78;;;31.52;44.44
27729;BME280;15126;42.186;24.340;2023-06-26T09:28:12;98820.66;;;31.60;44.96
27729;BME280;15126;42.186;24.340;2023-06-26T09:30:38;98799.72;;;31.60;44.25
27729;BME280;15126;42.186;24.340;2023-06-26T09:33:15;98805.34;;;31.75;43.18
27729;BME280;15126;42.186;24.340;2023-06-26T09:35:43;98818.00;;;31.79;42.74
27729;BME280;15126;42.186;24.340;2023-06-26T09:38:10;98812.19;;;31.62;43.62
27729;BME280;15126;42.186;24.340;2023-06-26T09:40:38;98806.19;;;31.68;45.12
27729;BME280;15126;42.186;24.340;2023-06-26T09:43:06;98807.81;;;31.78;42.75
27729;BME280;15126;42.186;24.340;2023-06-26T09:45:35;98809.19;;;31.45;43.19
27729;BME280;15126;42.186;24.340;2023-06-26T09:48:03;98807.22;;;31.80;44.45
27729;BME280;15126;42.186;24.340;2023-06-26T09:50:32;98798.50;;;31.88;43.09
27729;BME280;15126;42.186;24.340;2023-06-26T09:53:07;98795.78;;;31.90;42.64
27729;BME280;15126;42.186;24.340;2023-06-26T09:55:35;98794.63;;;32.10;42.16
27729;BME280;15126;42.186;24.340;2023-06-26T09:58:02;98800.94;;;32.16;44.80
27729;BME280;15126;42.186;24.340;2023-06-26T10:00:30;98788.53;;;32.06;44.73
27729;BME280;15126;42.186;24.340;2023-06-26T10:02:58;98792.28;;;32.16;42.70
27729;BME280;15126;42.186;24.340;2023-06-26T10:05:26;98784.56;;;32.01;42.46
27729;BME280;15126;42.186;24.340;2023-06-26T10:07:53;98781.59;;;32.09;42.17
27729;BME280;15126;42.186;24.340;2023-06-26T10:10:22;98779.38;;;32.17;41.75
27729;BME280;15126;42.186;24.340;2023-06-26T10:12:51;98778.63;;;32.33;43.86
27729;BME280;15126;42.186;24.340;2023-06-26T10:15:21;98781.25;;;32.39;40.87
27729;BME280;15126;42.186;24.340;2023-06-26T10:17:50;98779.34;;;32.51;41.48
27729;BME280;15126;42.186;24.340;2023-06-26T10:20:19;98770.44;;;32.74;43.30
27729;BME280;15126;42.186;24.340;2023-06-26T10:22:46;98781.03;;;32.88;41.16
27729;BME280;15126;42.186;24.340;2023-06-26T10:25:16;98765.44;;;32.74;40.54
27729;BME280;15126;42.186;24.340;2023-06-26T10:27:48;98767.91;;;32.61;39.91
27729;BME280;15126;42.186;24.340;2023-06-26T10:30:21;98764.56;;;32.81;43.08
27729;BME280;15126;42.186;24.340;2023-06-26T10:32:50;98756.25;;;32.51;40.27
27729;BME280;15126;42.186;24.340;2023-06-26T10:35:20;98744.91;;;32.53;41.71
27729;BME280;15126;42.186;24.340;2023-06-26T10:37:50;98753.19;;;32.49;41.21
27729;BME280;15126;42.186;24.340;2023-06-26T10:40:23;98760.44;;;32.40;39.01
27729;BME280;15126;42.186;24.340;2023-06-26T10:43:05;98747.63;;;32.34;41.91
27729;BME280;15126;42.186;24.340;2023-06-26T10:45:33;98734.03;;;32.44;39.68
27729;BME280;15126;42.186;24.340;2023-06-26T10:48:00;98749.31;;;32.20;40.76
27729;BME280;15126;42.186;24.340;2023-06-26T10:50:30;98734.28;;;32.38;41.48
27729;BME280;15126;42.186;24.340;2023-06-26T10:53:11;98746.44;;;32.54;41.79
27729;BME280;15126;42.186;24.340;2023-06-26T10:55:43;98738.34;;;32.53;40.72
27729;BME280;15126;42.186;24.340;2023-06-26T10:58:33;98729.94;;;32.30;39.60
27729;BME280;15126;42.186;24.340;2023-06-26T11:01:30;98746.41;;;32.37;39.10
27729;BME280;15126;42.186;24.340;2023-06-26T11:04:06;98744.81;;;32.44;40.40
27729;BME280;15126;42.186;24.340;2023-06-26T11:06:36;98741.44;;;32.20;39.37
27729;BME280;15126;42.186;24.340;2023-06-26T11:09:07;98742.34;;;32.40;39.57
27729;BME280;15126;42.186;24.340;2023-06-26T11:11:55;98742.00;;;32.36;39.60
27729;BME280;15126;42.186;24.340;2023-06-26T11:14:25;98737.22;;;32.48;40.87
27729;BME280;15126;42.186;24.340;2023-06-26T11:16:55;98735.09;;;32.49;39.00
27729;BME280;15126;42.186;24.340;2023-06-26T11:19:22;98736.41;;;32.55;40.02
27729;BME280;15126;42.186;24.340;2023-06-26T11:21:50;98730.56;;;32.72;38.98
27729;BME280;15126;42.186;24.340;2023-06-26T11:24:17;98728.56;;;32.92;41.34
27729;BME280;15126;42.186;24.340;2023-06-26T11:26:45;98739.19;;;32.89;38.62
27729;BME280;15126;42.186;24.340;2023-06-26T11:29:12;98731.31;;;32.90;38.08
27729;BME280;15126;42.186;24.340;2023-06-26T11:31:40;98735.56;;;33.16;39.47
27729;BME280;15126;42.186;24.340;2023-06-26T11:34:10;98740.66;;;33.34;37.95
27729;BME280;15126;42.186;24.340;2023-06-26T11:36:38;98730.81;;;33.47;37.77
27729;BME280;15126;42.186;24.340;2023-06-26T11:39:06;98740.94;;;33.65;40.46
27729;BME280;15126;42.186;24.340;2023-06-26T11:41:35;98740.94;;;33.29;37.44
27729;BME280;15126;42.186;24.340;2023-06-26T11:44:03;98737.38;;;33.11;38.83
27729;BME280;15126;42.186;24.340;2023-06-26T11:46:30;98750.66;;;32.97;38.20
27729;BME280;15126;42.186;24.340;2023-06-26T11:48:58;98747.69;;;32.44;39.24
27729;BME280;15126;42.186;24.340;2023-06-26T11:51:27;98750.56;;;31.92;39.24
27729;BME280;15126;42.186;24.340;2023-06-26T11:53:54;98745.00;;;31.52;41.00
27729;BME280;15126;42.186;24.340;2023-06-26T11:56:23;98709.66;;;30.95;42.21
27729;BME280;15126;42.186;24.340;2023-06-26T11:58:58;98749.31;;;30.79;43.38
27729;BME280;15126;42.186;24.340;2023-06-26T12:01:27;98749.38;;;30.64;43.84
27729;BME280;15126;42.186;24.340;2023-06-26T12:04:00;98748.91;;;30.35;44.44
27729;BME280;15126;42.186;24.340;2023-06-26T12:06:29;98745.25;;;30.35;44.73
27729;BME280;15126;42.186;24.340;2023-06-26T12:08:56;98720.59;;;30.09;45.48
27729;BME280;15126;42.186;24.340;2023-06-26T12:11:26;98753.53;;;30.23;45.94
27729;BME280;15126;42.186;24.340;2023-06-26T12:13:54;98749.31;;;30.24;46.25
27729;BME280;15126;42.186;24.340;2023-06-26T12:16:21;98752.31;;;30.49;47.82
27729;BME280;15126;42.186;24.340;2023-06-26T12:18:48;98747.81;;;30.63;45.11
27729;BME280;15126;42.186;24.340;2023-06-26T12:21:47;98732.53;;;30.85;43.94
27729;BME280;15126;42.186;24.340;2023-06-26T12:24:19;98743.28;;;30.92;43.90
27729;BME280;15126;42.186;24.340;2023-06-26T12:26:50;98735.13;;;31.06;44.59
27729;BME280;15126;42.186;24.340;2023-06-26T12:29:20;98734.72;;;31.09;43.25
27729;BME280;15126;42.186;24.340;2023-06-26T12:31:49;98736.25;;;31.10;43.38
27729;BME280;15126;42.186;24.340;2023-06-26T12:34:19;98740.44;;;31.17;44.26
27729;BME280;15126;42.186;24.340;2023-06-26T12:36:50;98742.63;;;31.01;44.25
27729;BME280;15126;42.186;24.340;2023-06-26T12:39:18;98745.66;;;31.11;45.91
27729;BME280;15126;42.186;24.340;2023-06-26T12:41:49;98746.28;;;31.02;43.69
27729;BME280;15126;42.186;24.340;2023-06-26T12:44:17;98750.56;;;30.93;45.04
27729;BME280;15126;42.186;24.340;2023-06-26T12:46:46;98743.06;;;30.90;44.63
27729;BME280;15126;42.186;24.340;2023-06-26T12:49:13;98746.38;;;30.87;46.81
27729;BME280;15126;42.186;24.340;2023-06-26T12:51:40;98740.34;;;31.00;44.64
27729;BME280;15126;42.186;24.340;2023-06-26T12:54:08;98735.59;;;30.95;45.55
27729;BME280;15126;42.186;24.340;2023-06-26T12:56:35;98745.88;;;31.05;46.40